• Join FlightAware (Why Join?)
  • Login
  • US Flag 
02:41PM EDT


 

Airport Tracker/Info


-or-


 

Live Flight TrackerFlight Track Log ✈ N1250V ✈ 27-Dec-2013 ✈ KAPF - KLUK

Flight Track Log - Related Links

Times and Time Zones

All times are in EST time to prevent confusion due to time zone crossing. See the N1250V flight status page for this flight to view local times or setup timezone preferences in your user account.

Time Position Orientation Groundspeed Altitude Reporting Facility
EST Latitude Longitude Course Direction KTS MPH feet Rate Location/Type
01:54PM 26.2842 -81.6992 336° Northwest 238 274 4,800  Level Miami Center
01:55PM 26.3508 -81.7042 356° North 255 293 7,200 2,100 Climbing Miami Center
01:56PM 26.4197 -81.7069 358° North 247 284 9,100 1,800 Climbing Miami Center
01:57PM 26.4925 -81.7122 356° North 252 290 10,900 1,740 Climbing Miami Center
01:58PM 26.6959 -81.8726 336° Northwest  Level Estimated
01:58PM 26.5633 -81.7197 355° North 257 296 12,600  Level Miami Center
01:59PM 26.7865 -81.8889 336° Northwest  Level Estimated
01:59PM 26.6364 -81.7228 358° North 257 296 14,400  Level Miami Center
02:00PM 26.7114 -81.7258 358° North 257 296 15,900 1,500 Climbing Miami Center
02:01PM 26.7822 -81.7289 358° North 264 304 17,500 1,440 Climbing Miami Center
02:02PM 26.8656 -81.7369 355° North 275 316 18,800 1,500 Climbing Miami Center
02:03PM 26.9425 -81.7403 358° North 270 311 20,600 1,500 Climbing Miami Center
02:04PM 27.0217 -81.7436 358° North 270 311 21,900 1,140 Climbing Miami Center
02:05PM 27.0961 -81.7653 345° North 276 318 22,900 1,080 Climbing Miami Center
02:06PM 27.1703 -81.7917 342° North 276 318 24,100 1,200 Climbing Miami Center
02:07PM 27.2386 -81.8158 343° North 282 325 25,400 1,200 Climbing Miami Center
02:08PM 27.3189 -81.8425 344° North 282 325 26,600 900 Climbing Miami Center
02:10PM 27.4408 -81.8872 342° North 282 325 28,000 900 Climbing Jacksonville Center
02:11PM 27.5119 -81.9147 341° North 282 325 29,200 1,020 Climbing Jacksonville Center
02:12PM 27.5853 -81.9397 343° North 276 318 30,100 900 Climbing Jacksonville Center
02:13PM 27.6647 -81.9742 339° North 282 325 31,000 900 Climbing Jacksonville Center
02:14PM 27.7400 -81.9994 343° North 287 330 31,900 720 Climbing Jacksonville Center
02:15PM 27.8319 -82.0267 345° North 293 337 32,500 660 Climbing Jacksonville Center
02:16PM 27.9053 -82.0542 342° North 293 337 33,300 600 Climbing Jacksonville Center
02:17PM 27.9867 -82.0794 345° North 288 331 33,700 300 Climbing Jacksonville Center
02:18PM 28.0661 -82.1069 343° North 288 331 34,000 120 Climbing Jacksonville Center
02:19PM 28.1539 -82.1369 343° North 306 352 34,000  Level Jacksonville Center
02:20PM 28.2461 -82.1717 342° North 327 376 34,000  Level Jacksonville Center
02:21PM 28.3400 -82.2039 343° North 338 389 34,000  Level Jacksonville Center
02:22PM 28.4361 -82.2386 342° North 350 403 34,000  Level Jacksonville Center
02:23PM 28.5303 -82.2736 342° North 350 403 34,000  Level Jacksonville Center
02:24PM 28.6244 -82.3083 342° North 355 409 34,000  Level Jacksonville Center
02:25PM 28.7183 -82.3411 343° North 355 409 34,000  Level Jacksonville Center
02:26PM 28.8125 -82.3761 342° North 349 402 34,000  Level Jacksonville Center
02:27PM 28.9067 -82.4133 341° North 349 402 34,000  Level Jacksonville Center
02:28PM 29.0028 -82.4461 343° North 349 402 34,000  Level Jacksonville Center
02:29PM 29.0967 -82.4839 341° North 349 402 34,000  Level Jacksonville Center
02:30PM 29.1908 -82.5192 342° North 349 402 34,000  Level Jacksonville Center
02:31PM 29.2869 -82.5519 343° North 349 402 34,000  Level Jacksonville Center
02:32PM 29.3808 -82.5875 342° North 349 402 34,000  Level Jacksonville Center
02:33PM 29.4853 -82.6014 353° North 354 407 34,000 180 Level Jacksonville Center
02:34PM 29.5939 -82.5964 North 369 425 34,400 300 Climbing Jacksonville Center
02:35PM 29.6983 -82.5889 North 369 425 34,700 300 Climbing Jacksonville Center
02:36PM 29.8047 -82.5839 North 369 425 35,000 120 Climbing Jacksonville Center
02:37PM 29.9111 -82.5786 North 369 425 35,000  Level Jacksonville Center
02:38PM 30.0197 -82.5758 North 374 430 35,000  Level Jacksonville Center
02:39PM 30.1158 -82.5733 North 380 437 35,000  Level Jacksonville Center
02:40PM 30.2244 -82.5681 North 385 443 35,000  Level Jacksonville Center
02:41PM 30.3350 -82.5628 North 385 443 35,000  Level Jacksonville Center
02:42PM 30.4436 -82.5578 North 385 443 35,000  Level Jacksonville Center
02:43PM 30.5500 -82.5622 358° North 385 443 35,000  Level Jacksonville Center
02:44PM 30.6503 -82.5883 347° North 372 428 35,000  Level Jacksonville Center
02:45PM 30.7464 -82.6122 348° North 367 422 35,000  Level Jacksonville Center
02:46PM 30.8467 -82.6336 350° North 362 417 35,000  Level Jacksonville Center
02:47PM 30.9469 -82.6575 348° North 362 417 35,000  Level Jacksonville Center
02:48PM 31.0453 -82.6817 348° North 362 417 35,000  Level Jacksonville Center
02:49PM 31.1558 -82.7056 350° North 362 417 35,000  Level Jacksonville Center
02:50PM 31.2561 -82.7272 350° North 362 417 35,000  Level Jacksonville Center
02:51PM 31.3564 -82.7492 349° North 362 417 35,000  Level Jacksonville Center
02:52PM 31.4544 -82.7733 348° North 354 407 35,000  Level Jacksonville Center
02:54PM 31.6758 -82.8286 348° North 359 413 35,000  Level Atlanta Center
02:55PM 31.7742 -82.8517 349° North 359 413 35,000  Level Atlanta Center
02:56PM 31.8767 -82.8772 348° North 359 413 35,000  Level Atlanta Center
02:57PM 31.9731 -82.9003 349° North 359 413 35,000  Level Atlanta Center
02:58PM 32.0733 -82.9261 348° North 359 413 35,000  Level Atlanta Center
02:59PM 32.1697 -82.9469 350° North 354 407 35,000  Level Atlanta Center
03:00PM 32.2700 -82.9728 348° North 354 407 35,000  Level Atlanta Center
03:01PM 32.3642 -82.9961 348° North 354 407 35,000  Level Atlanta Center
03:02PM 32.4603 -83.0197 348° North 354 407 35,000  Level Atlanta Center
03:03PM 32.5608 -83.0431 349° North 354 407 35,000  Level Atlanta Center
03:04PM 32.6592 -83.0717 346° North 354 407 35,000  Level Atlanta Center
03:05PM 32.7575 -83.0953 349° North 354 407 35,000  Level Atlanta Center
03:06PM 32.8619 -83.1189 349° North 354 407 35,000  Level Atlanta Center
03:07PM 32.9603 -83.1425 349° North 359 413 35,000  Level Atlanta Center
03:08PM 33.0397 -83.1617 349° North 354 407 35,000  Level Atlanta Center
03:09PM 33.1547 -83.1928 347° North 354 407 35,000  Level Atlanta Center
03:10PM 33.2550 -83.2167 349° North 361 415 35,000  Level Atlanta Center
03:11PM 33.3511 -83.2406 348° North 353 406 35,000  Level Atlanta Center
03:12PM 33.4475 -83.2644 348° North 353 406 35,000  Level Atlanta Center
03:13PM 33.5478 -83.2886 349° North 353 406 35,000  Level Atlanta Center
03:14PM 33.6439 -83.3103 349° North 353 406 35,000  Level Atlanta Center
03:15PM 33.7381 -83.3369 347° North 348 400 35,000  Level Atlanta Center
03:16PM 33.8361 -83.3611 348° North 348 400 35,000  Level Atlanta Center
03:17PM 33.9197 -83.3828 348° North 353 406 35,000  Level Atlanta Center
03:18PM 34.0181 -83.4047 350° North 353 406 35,000  Level Atlanta Center
03:19PM 34.1100 -83.4267 349° North 353 406 35,000  Level Atlanta Center
03:20PM 34.2039 -83.4511 348° North 342 394 35,000  Level Atlanta Center
03:21PM 34.2958 -83.4756 348° North 337 388 35,000  Level Atlanta Center
03:22PM 34.3878 -83.4975 349° North 332 382 35,000  Level Atlanta Center
03:23PM 34.4797 -83.5172 350° North 332 382 35,000  Level Atlanta Center
03:24PM 34.5675 -83.5419 347° North 332 382 35,000  Level Atlanta Center
03:25PM 34.6594 -83.5642 349° North 332 382 35,000  Level Atlanta Center
03:26PM 34.7597 -83.5836 351° North 332 382 35,000  Level Atlanta Center
03:27PM 34.8600 -83.5958 354° North 343 395 35,000  Level Atlanta Center
03:28PM 34.9475 -83.6081 353° North 348 400 35,000  Level Atlanta Center
03:29PM 35.0417 -83.6175 355° North 348 400 35,000  Level Atlanta Center
03:30PM 35.1375 -83.6272 355° North 348 400 35,000  Level Atlanta Center
03:31PM 35.2336 -83.6394 354° North 348 400 35,000  Level Atlanta Center
03:32PM 35.3297 -83.6492 355° North 348 400 35,000  Level Atlanta Center
03:33PM 35.4278 -83.6614 354° North 348 400 35,000  Level Atlanta Center
03:34PM 35.5175 -83.6739 354° North 348 400 35,000  Level Atlanta Center
03:36PM 35.7158 -83.6936 357° North 348 400 35,000  Level Atlanta Center
03:37PM 35.8097 -83.7058 354° North 348 400 35,000  Level Atlanta Center
03:38PM 35.9078 -83.7158 355° North 348 400 35,000  Level Atlanta Center
03:39PM 36.0017 -83.7256 355° North 348 400 35,000  Level Atlanta Center
03:41PM 36.2100 -83.7472 355° North 347 399 35,000  Level Indianapolis Center
03:42PM 36.3064 -83.7594 354° North 348 400 35,000  Level Indianapolis Center
03:44PM 36.4017 -83.7686 356° North 347 399 35,000  Level Indianapolis Center
03:45PM 36.5142 -83.7825 354° North 349 402 35,000  Level Indianapolis Center
03:46PM 36.6169 -83.7692 North 368 423 35,000  Level Indianapolis Center
03:47PM 36.7194 -83.7514 North 371 427 35,000  Level Indianapolis Center
03:48PM 36.8217 -83.7339 North 369 425 35,000  Level Indianapolis Center
03:49PM 36.9247 -83.7142 North 372 428 35,000 -60 Level Indianapolis Center
03:50PM 37.0300 -83.6961 North 377 434 34,900 -1,260 Descending Indianapolis Center
03:51PM 37.1586 -83.6728 North 398 458 32,400 -2,280 Descending Indianapolis Center
03:52PM 37.2703 -83.6514 North 405 466 30,200 -2,220 Descending Indianapolis Center
03:53PM 37.3744 -83.6344 North 378 435 27,900 -2,220 Descending Indianapolis Center
03:54PM 37.4758 -83.6156 North 369 425 25,700 -1,440 Descending Indianapolis Center
03:55PM 37.5753 -83.5992 North 360 414 25,000 -360 Descending Indianapolis Center
03:56PM 37.6689 -83.5944 North 339 390 25,000 -240 Level Indianapolis Center
03:57PM 37.7669 -83.6300 344° North 315 362 24,600 -540 Descending Indianapolis Center
03:58PM 37.8542 -83.6608 344° North 323 372 24,000 -480 Descending Indianapolis Center
03:59PM 37.9400 -83.6883 346° North 317 365 23,700 -720 Descending Indianapolis Center
04:00PM 38.0264 -83.7183 345° North 320 368 22,500 -1,380 Descending Indianapolis Center
04:01PM 38.1103 -83.7481 344° North 314 361 20,900 -1,560 Descending Indianapolis Center
04:02PM 38.1928 -83.7767 345° North 307 353 19,300 -1,500 Descending Indianapolis Center
04:03PM 38.2875 -83.8106 344° North 302 348 17,900 -1,500 Descending Indianapolis Center
04:04PM 38.3650 -83.8372 345° North 290 334 16,300 -1,560 Descending Indianapolis Center
04:05PM 38.4378 -83.8619 345° North 274 315 14,700 -1,500 Descending Indianapolis Center
04:06PM 38.5100 -83.8886 344° North 270 311 13,200 -1,320 Descending Indianapolis Center
04:07PM 38.5819 -83.9131 345° North 267 307 12,000 -600 Descending Indianapolis Center
04:08PM 38.6489 -83.9581 332° Northwest 263 303 12,000 -120 Level Indianapolis Center
04:09PM 38.7131 -84.0028 331° Northwest 263 303 11,800 -600 Descending Indianapolis Center
04:10PM 38.7764 -84.0483 331° Northwest 262 302 10,800 -1,320 Descending Indianapolis Center
04:11PM 38.8522 -84.0967 334° Northwest 254 292 9,100 -1,500 Descending Indianapolis Center
04:12PM 38.9156 -84.1422 331° Northwest 258 297 7,700 -1,440 Descending Indianapolis Center
04:14PM 38.9775 -84.1842 332° Northwest 255 293 6,200 -1,440 Descending Indianapolis Center
04:15PM 39.0317 -84.2300 327° Northwest 241 277 4,800 -1,020 Descending Indianapolis Center
04:16PM 39.0822 -84.2825 321° Northwest 238 274 4,100 -540 Descending Indianapolis Center
04:17PM 39.1244 -84.3267 321° Northwest 223 257 3,700 -360 Descending Indianapolis Center
04:18PM 39.1331 -84.3697 284° West 206 237 3,400 -300 Descending Indianapolis Center
04:20PM 39.1000 -84.4167 322° Northwest  Level FlightAware Approximate
04:27PM 39.1033 -84.4186 322° Northwest  Level Estimated